Sun 2018-02-18 01:31
Local weather stations in Arizona
KCGZ
Casa_Grande_Muni_Airport
Casa Grande, Casa Grande Municipal Airport, AZ, United States (KCGZ) 32-57N 111-46W
Feb 18, 2018 - 02:56 AM EST / 2018.02.18 0756 UTC
Wind: Calm:0
Visibility: 10 mile(s):0
Temperature: 55.0 F (12.8 C)
Dew Point: 50.0 F (10.0 C)
Relative Humidity: 83%
Pressure (altimeter): 30.02 in. Hg (1016 hPa)
ob: KCGZ 180756Z AUTO 00000KT 10SM 13/10 A3002 RMK AO2 SLP161 T01280100 
cycle: 8
KRYN
Tucson/Ryan_Field
Station name not available
Feb 17, 2018 - 09:45 PM EST / 2018.02.18 0245 UTC
Wind: from the W (270 degrees) at 6 MPH (5 KT):0
Visibility: 10 mile(s):0
Sky conditions: clear
Temperature: 60 F (16 C)
Dew Point: 53 F (12 C)
Relative Humidity: 77%
Pressure (altimeter): 30.1 in. Hg (1019 hPa)
ob: KRYN 180245Z 27005KT 10SM CLR 16/12 A3010 RMK LAST 
cycle: 3
KDMA
Tucson/Davis-Monthan-AFB
Davis-Monthan Air Force Base, AZ, United States (KDMA) 32-10N 110-53W
Feb 18, 2018 - 02:58 AM EST / 2018.02.18 0758 UTC
Wind: from the SSE (150 degrees) at 5 MPH (4 KT):0
Visibility: 10 mile(s):0
Sky conditions: clear
Temperature: 51.6 F (10.9 C)
Dew Point: 51.6 F (10.9 C)
Relative Humidity: 100%
Pressure (altimeter): 30.04 in. Hg (1017 hPa)
ob: KDMA 180758Z AUTO 15004KT 10SM CLR 11/11 A3004 RMK AO2 SLP151 T01090109
cycle: 8
KOLS
Nogales-Intl_Airport
NOGALES INTERNATIONAL AIRPORT , AZ, United States (KOLS) 31-25N 110-51W 1184M
Feb 18, 2018 - 02:54 AM EST / 2018.02.18 0754 UTC
Wind: from the E (080 degrees) at 7 MPH (6 KT):0
Visibility: 10 mile(s):0
Sky conditions: clear
Temperature: 48.9 F (9.4 C)
Dew Point: 46.0 F (7.8 C)
Relative Humidity: 89%
Pressure (altimeter): 30.06 in. Hg (1017 hPa)
ob: KOLS 180754Z AUTO 08006KT 10SM CLR 09/08 A3006 RMK AO2 SLP144 T00940078
cycle: 8
KFHU
Fort-Huachuca
Fort Huachuca, Libby AAF Ft Huachuca, AZ, United States (KFHU) 46-98N 110-20W
Feb 18, 2018 - 02:58 AM EST / 2018.02.18 0758 UTC
Wind: Calm:0
Visibility: 10 mile(s):0
Sky conditions: clear
Temperature: 48.7 F (9.3 C)
Dew Point: 45.9 F (7.7 C)
Relative Humidity: 89%
Pressure (altimeter): 30.1 in. Hg (1019 hPa)
ob: KFHU 180758Z AUTO 00000KT 10SM CLR 09/08 A3010 RMK AO2 SLP160 T00930077
cycle: 8
KSAD
Safford
SAFFORD MUNICIPAL AIRPORT, AZ, United States (KSAD) 32-51N 109-38W 962M
Feb 18, 2018 - 02:51 AM EST / 2018.02.18 0751 UTC
Wind: Calm:0
Visibility: 10 mile(s):0
Sky conditions: clear
Temperature: 50.0 F (10.0 C)
Dew Point: 46.9 F (8.3 C)
Relative Humidity: 89%
Pressure (altimeter): 30.05 in. Hg (1017 hPa)
ob: KSAD 180751Z AUTO 00000KT 10SM CLR 10/08 A3005 RMK AO2 SLP152 T01000083
cycle: 8
KGBN
Gila_Bend
Gila Bend U. S. Army Airfield, AZ, United States (KGBN) 32-26N 112-41W 261M
Jul 20, 2017 - 10:57 AM EDT / 2017.07.20 1457 UTC
Wind: Calm:0
Visibility: 10 mile(s):0
Sky conditions: partly cloudy
Temperature: 86 F (30 C)
Dew Point: 68 F (20 C)
Relative Humidity: 55%
Pressure (altimeter): 29.97 in. Hg (1014 hPa)
ob: KGBN 201457Z 00000KT 10SM FEW100 SCT150 30/20 A2997 RMK A02 NO SLP
cycle: 15
KYUM
Yuma_Intl
Yuma / Yuma International, AZ, United States (KYUM) 32-39N 114-36W 63M
Nov 07, 2008 - 06:20 AM EST / 2008.11.07 1120 UTC
Wind: from the N (010 degrees) at 7 MPH (6 KT):0
Sky conditions: clear
ob: KYUM 071120Z 0712/0812 01006KT P6SM SKC FM071700 02012KT P6SM SKC FM080100 33005KT P6SM SKC
cycle: 11
KPHX
Phoenix
Phoenix, Phoenix Sky Harbor International Airport, AZ, United States (KPHX) 33-26-03N 112-03-04W 336M
Feb 18, 2018 - 02:51 AM EST / 2018.02.18 0751 UTC
Wind: Calm:0
Visibility: 10 mile(s):0
Sky conditions: mostly cloudy
Temperature: 57.0 F (13.9 C)
Dew Point: 50.0 F (10.0 C)
Relative Humidity: 77%
Pressure (altimeter): 29.99 in. Hg (1015 hPa)
ob: KPHX 180751Z 00000KT 10SM BKN250 14/10 A2999 RMK AO2 SLP145 T01390100 
cycle: 8
KPRC
Prescott_LoveField
PRESCOTT LOVE FIELD, AZ, United States (KPRC) 34-39N 112-25W 1524M
Feb 18, 2018 - 02:53 AM EST / 2018.02.18 0753 UTC
Wind: from the S (180 degrees) at 3 MPH (3 KT):0
Visibility: 10 mile(s):0
Sky conditions: clear
Temperature: 37.9 F (3.3 C)
Dew Point: 32.0 F (0.0 C)
Relative Humidity: 78%
Pressure (altimeter): 30.06 in. Hg (1017 hPa)
ob: KPRC 180753Z AUTO 18003KT 10SM CLR 03/00 A3006 RMK AO2 SLP143 T00330000
cycle: 8
KGCN
Grand_Canyon
GRAND CANYON NATL PARK AIRPORT , AZ, United States (KGCN) 35-57N 112-09W 2016M
Feb 18, 2018 - 02:54 AM EST / 2018.02.18 0754 UTC
Wind: Calm:0
Visibility: 10 mile(s):0
Sky conditions: clear
Temperature: 23.0 F (-5.0 C)
Dew Point: 21.0 F (-6.1 C)
Relative Humidity: 91%
Pressure (altimeter): 30.08 in. Hg (1018 hPa)
ob: KGCN 180754Z AUTO 00000KT 10SM CLR M05/M06 A3008 RMK AO2 SLP165 T10501061
cycle: 8
KINW
Winslow
WINSLOW MUNICIPAL AIRPORT, AZ, United States (KINW) 35-02N 110-43W 1490M
Feb 18, 2018 - 02:56 AM EST / 2018.02.18 0756 UTC
Wind: from the SE (130 degrees) at 8 MPH (7 KT):0
Visibility: 10 mile(s):0
Sky conditions: clear
Temperature: 34.0 F (1.1 C)
Windchill: 26 F (-3 C):1
Dew Point: 24.1 F (-4.4 C)
Relative Humidity: 66%
Pressure (altimeter): 30.05 in. Hg (1017 hPa)
ob: KINW 180756Z AUTO 13007KT 10SM CLR 01/M04 A3005 RMK AO2 SLP161 T00111044
cycle: 8
KIFP
Bullhead_City
Bullhead City, Laughlin/Bullhead International Airport, AZ, United States (KIFP) 35-09-27N 114-33-34W
Feb 18, 2018 - 03:15 AM EST / 2018.02.18 0815 UTC
Wind: Calm:0
Visibility: 10 mile(s):0
Sky conditions: clear
Temperature: 53 F (12 C)
Dew Point: 23 F (-5 C)
Relative Humidity: 30%
Pressure (altimeter): 29.97 in. Hg (1014 hPa)
ob: KIFP 180815Z AUTO 00000KT 10SM CLR 12/M05 A2997 RMK AO2
cycle: 8
42 seconds elapsed
Crontab entry: 1,16,31,46 * * * * /var/www/html/area/area.sh >/dev/null
To get a list of weather stations please use this URL:
    http://weather.rap.ucar.edu/surface/stations.txt